Terminal Aerodrome Forecast
Issued by NWS Sioux Falls, SD

Home | Current Version | Previous Version | Graphics & Text | Print | Product List | Glossary On
Versions: 1 2 3 4 5 6 7 8 9 10 11 12 13 14 15 16 17 18
000
FTUS43 KFSD 230631 AAB
TAFFSD
TAF AMD
KFSD 230631Z 2307/2406 VRB02KT 1/4SM FG VV002
     FM231300 23006KT 1/2SM FG SCT003
      TEMPO 2315/2316 3SM BR
     FM231600 19006KT P6SM SCT250=

USA.gov is the U.S. government's official web portal to all federal, state and local government web resources and services.